createdAt,value
2023-04-15T00:00:59.884Z,100759.00
2023-04-15T00:03:27.003Z,100764.00
2023-04-15T00:05:53.953Z,100763.00
2023-04-15T00:08:20.655Z,100757.00
2023-04-15T00:10:47.235Z,100763.00
2023-04-15T00:13:13.845Z,100759.00
2023-04-15T00:15:41.016Z,100756.00
2023-04-15T00:18:08.316Z,100762.00
2023-04-15T00:20:35.864Z,100767.00
2023-04-15T00:23:04.299Z,100767.00
2023-04-15T00:25:31.223Z,100764.00
2023-04-15T00:27:57.847Z,100763.00
2023-04-15T00:30:25.761Z,100760.00
2023-04-15T00:32:52.725Z,100758.00
2023-04-15T00:35:19.419Z,100767.00
2023-04-15T00:37:46.302Z,100768.00
2023-04-15T00:40:13.985Z,100768.00
2023-04-15T00:42:41.284Z,100760.00
2023-04-15T00:45:08.984Z,100764.00
2023-04-15T00:47:37.879Z,100763.00
2023-04-15T00:50:05.167Z,100764.00
2023-04-15T00:52:32.109Z,100753.00
2023-04-15T00:54:59.575Z,100753.00
2023-04-15T00:57:27.266Z,100757.00
2023-04-15T00:59:54.452Z,100755.00
2023-04-15T01:02:21.529Z,100751.00
2023-04-15T01:04:48.586Z,100757.00
2023-04-15T01:07:15.347Z,100758.00
2023-04-15T01:09:42.497Z,100757.00
2023-04-15T01:12:12.792Z,100759.00
2023-04-15T01:14:39.480Z,100763.00
2023-04-15T01:17:06.108Z,100761.00
2023-04-15T01:19:32.882Z,100759.00
2023-04-15T01:21:59.547Z,100753.00
2023-04-15T01:24:27.924Z,100762.00
2023-04-15T01:26:54.552Z,100757.00
2023-04-15T01:29:21.534Z,100757.00
2023-04-15T01:31:52.348Z,100761.00
2023-04-15T01:34:19.616Z,100759.00
2023-04-15T01:36:46.443Z,100758.00
2023-04-15T01:39:13.458Z,100758.00
2023-04-15T01:41:40.936Z,100754.00
2023-04-15T01:44:08.136Z,100755.00
2023-04-15T01:46:35.877Z,100754.00
2023-04-15T01:49:02.827Z,100760.00
2023-04-15T01:51:29.557Z,100760.00
2023-04-15T01:53:59.229Z,100757.00
2023-04-15T01:56:26.691Z,100756.00
2023-04-15T01:58:53.570Z,100763.00
2023-04-15T02:01:20.914Z,100755.00
2023-04-15T02:03:48.117Z,100765.00
2023-04-15T02:06:15.402Z,100764.00
2023-04-15T02:08:42.092Z,100766.00
2023-04-15T02:11:09.391Z,100770.00
2023-04-15T02:13:36.329Z,100774.00
2023-04-15T02:16:04.437Z,100769.00
2023-04-15T02:18:31.098Z,100771.00
2023-04-15T02:20:58.679Z,100776.00
2023-04-15T02:23:25.685Z,100778.00
2023-04-15T02:25:53.380Z,100786.00
2023-04-15T02:28:21.835Z,100786.00
2023-04-15T02:30:52.901Z,100794.00
2023-04-15T02:33:20.250Z,100796.00
2023-04-15T02:35:47.379Z,100794.00
2023-04-15T02:38:14.929Z,100797.00
2023-04-15T02:40:41.610Z,100804.00
2023-04-15T02:43:08.289Z,100807.00
2023-04-15T02:45:35.028Z,100807.00
2023-04-15T02:48:06.242Z,100808.00
2023-04-15T02:50:33.512Z,100821.00
2023-04-15T02:53:01.568Z,100820.00
2023-04-15T02:55:29.083Z,100823.00
2023-04-15T02:57:55.969Z,100817.00
2023-04-15T03:00:25.400Z,100823.00
2023-04-15T03:02:56.700Z,100827.00
2023-04-15T03:05:26.562Z,100831.00
2023-04-15T03:07:53.620Z,100834.00
2023-04-15T03:10:21.374Z,100844.00
2023-04-15T03:12:48.352Z,100844.00
2023-04-15T03:15:15.129Z,100832.00
2023-04-15T03:17:41.781Z,100850.00
2023-04-15T03:20:08.844Z,100849.00
2023-04-15T03:22:35.524Z,100835.00
2023-04-15T03:25:02.191Z,100844.00
2023-04-15T03:27:28.832Z,100849.00
2023-04-15T03:29:56.878Z,100848.00
2023-04-15T03:32:23.583Z,100848.00
2023-04-15T03:34:50.357Z,100849.00
2023-04-15T03:37:16.984Z,100851.00
2023-04-15T03:39:43.543Z,100857.00
2023-04-15T03:42:10.148Z,100859.00
2023-04-15T03:44:37.245Z,100857.00
2023-04-15T03:47:03.951Z,100855.00
2023-04-15T03:49:30.556Z,100863.00
2023-04-15T03:51:57.502Z,100860.00
2023-04-15T03:54:24.153Z,100863.00
2023-04-15T03:56:50.822Z,100865.00
2023-04-15T03:59:17.435Z,100868.00
2023-04-15T04:01:44.103Z,100856.00
2023-04-15T04:04:11.124Z,100870.00
2023-04-15T04:06:37.855Z,100867.00
2023-04-15T04:09:04.430Z,100868.00
2023-04-15T04:11:31.810Z,100879.00
2023-04-15T04:13:58.600Z,100883.00
2023-04-15T04:16:25.520Z,100876.00
2023-04-15T04:18:52.122Z,100880.00
2023-04-15T04:21:18.910Z,100881.00
2023-04-15T04:23:45.594Z,100892.00
2023-04-15T04:26:12.197Z,100893.00
2023-04-15T04:28:40.642Z,100888.00
2023-04-15T04:31:07.764Z,100887.00
2023-04-15T04:33:34.579Z,100892.00
2023-04-15T04:36:01.531Z,100899.00
2023-04-15T04:38:28.179Z,100906.00
2023-04-15T04:40:54.853Z,100909.00
2023-04-15T04:43:21.503Z,100910.00
2023-04-15T04:45:48.143Z,100910.00
2023-04-15T04:48:14.819Z,100916.00
2023-04-15T04:50:41.997Z,100923.00
2023-04-15T04:53:09.022Z,100927.00
2023-04-15T04:55:37.136Z,100929.00
2023-04-15T04:58:03.781Z,100935.00
2023-04-15T05:00:30.474Z,100944.00
2023-04-15T05:02:57.380Z,100944.00
2023-04-15T05:05:24.180Z,100951.00
2023-04-15T05:07:51.278Z,100957.00
2023-04-15T05:10:18.365Z,100957.00
2023-04-15T05:12:45.062Z,100959.00
2023-04-15T05:15:12.308Z,100961.00
2023-04-15T05:17:39.023Z,100968.00
2023-04-15T05:20:06.301Z,100976.00
2023-04-15T05:22:33.185Z,100984.00
2023-04-15T05:24:59.927Z,100983.00
2023-04-15T05:27:26.634Z,100985.00
2023-04-15T05:29:53.248Z,100990.00
2023-04-15T05:32:19.939Z,100993.00
2023-04-15T05:34:47.256Z,101015.00
2023-04-15T05:37:13.963Z,101019.00
2023-04-15T05:39:40.560Z,101022.00
2023-04-15T05:42:07.677Z,101022.00
2023-04-15T05:44:34.710Z,101025.00
2023-04-15T05:47:01.592Z,101026.00
2023-04-15T05:49:28.246Z,101034.00
2023-04-15T05:51:54.859Z,101046.00
2023-04-15T05:54:22.648Z,101046.00
2023-04-15T05:56:49.474Z,101049.00
2023-04-15T05:59:16.136Z,101055.00
2023-04-15T06:01:43.019Z,101056.00
2023-04-15T06:04:09.928Z,101064.00
2023-04-15T06:06:36.640Z,101075.00
2023-04-15T06:09:03.370Z,101075.00
2023-04-15T06:11:30.523Z,101073.00
2023-04-15T06:13:57.340Z,101086.00
2023-04-15T06:16:23.990Z,101085.00
2023-04-15T06:18:50.577Z,101094.00
2023-04-15T06:21:17.246Z,101103.00
2023-04-15T06:23:43.981Z,101096.00
2023-04-15T06:26:10.589Z,101096.00
2023-04-15T06:28:37.220Z,101107.00
2023-04-15T06:31:03.984Z,101111.00
2023-04-15T06:33:30.700Z,101109.00
2023-04-15T06:35:57.268Z,101113.00
2023-04-15T06:38:23.958Z,101126.00
2023-04-15T06:40:51.067Z,101135.00
2023-04-15T06:43:17.637Z,101129.00
2023-04-15T06:45:44.652Z,101132.00
2023-04-15T06:48:11.813Z,101131.00
2023-04-15T06:50:38.478Z,101141.00
2023-04-15T06:53:05.088Z,101143.00
2023-04-15T06:55:32.364Z,101144.00
2023-04-15T06:57:58.964Z,101149.00
2023-04-15T07:00:25.644Z,101151.00
2023-04-15T07:02:52.843Z,101153.00
2023-04-15T07:05:20.187Z,101169.00
2023-04-15T07:07:46.924Z,101165.00
2023-04-15T07:10:14.969Z,101164.00
2023-04-15T07:12:41.927Z,101168.00
2023-04-15T07:15:08.867Z,101173.00
2023-04-15T07:17:35.561Z,101166.00
2023-04-15T07:20:02.598Z,101171.00
2023-04-15T07:22:29.339Z,101180.00
2023-04-15T07:24:56.043Z,101179.00
2023-04-15T07:27:22.670Z,101189.00
2023-04-15T07:29:49.286Z,101189.00
2023-04-15T07:32:16.471Z,101192.00
2023-04-15T07:34:43.242Z,101202.00
2023-04-15T07:37:10.026Z,101213.00
2023-04-15T07:39:37.161Z,101220.00
2023-04-15T07:42:04.279Z,101226.00
2023-04-15T07:44:31.299Z,101223.00
2023-04-15T07:46:58.543Z,101216.00
2023-04-15T07:49:25.272Z,101223.00
2023-04-15T07:51:52.018Z,101233.00
2023-04-15T07:54:18.662Z,101239.00
2023-04-15T07:56:47.885Z,101251.00
2023-04-15T07:59:18.168Z,101266.00
2023-04-15T08:01:45.140Z,101262.00
2023-04-15T08:04:12.017Z,101267.00
2023-04-15T08:06:40.086Z,101272.00
2023-04-15T08:09:07.203Z,101274.00
2023-04-15T08:11:33.977Z,101289.00
2023-04-15T08:14:00.707Z,101290.00
2023-04-15T08:16:28.134Z,101300.00
2023-04-15T08:18:56.326Z,101311.00
2023-04-15T08:21:23.018Z,101316.00
2023-04-15T08:23:52.454Z,101316.00
2023-04-15T08:26:20.208Z,101325.00
2023-04-15T08:28:47.726Z,101333.00
2023-04-15T08:31:15.561Z,101336.00
2023-04-15T08:33:42.642Z,101346.00
2023-04-15T08:36:09.716Z,101338.00
2023-04-15T08:38:36.706Z,101350.00
2023-04-15T08:41:10.468Z,101351.00
2023-04-15T08:43:48.268Z,101363.00
2023-04-15T08:46:15.735Z,101363.00
2023-04-15T08:48:43.162Z,101368.00
2023-04-15T08:51:11.028Z,101376.00
2023-04-15T08:53:37.770Z,101381.00
2023-04-15T08:56:07.565Z,101396.00
2023-04-15T08:58:35.711Z,101394.00
2023-04-15T09:01:02.573Z,101400.00
2023-04-15T09:03:29.270Z,101406.00
2023-04-15T09:05:57.422Z,101407.00
2023-04-15T09:08:24.220Z,101415.00
2023-04-15T09:10:51.359Z,101415.00
2023-04-15T09:13:18.614Z,101415.00
2023-04-15T09:15:45.849Z,101423.00
2023-04-15T09:18:13.776Z,101428.00
2023-04-15T09:20:42.460Z,101431.00
2023-04-15T09:23:14.215Z,101438.00
2023-04-15T09:25:44.752Z,101450.00
2023-04-15T09:28:11.501Z,101447.00
2023-04-15T09:30:38.389Z,101457.00
2023-04-15T09:33:08.864Z,101458.00
2023-04-15T09:35:36.758Z,101462.00
2023-04-15T09:38:06.404Z,101472.00
2023-04-15T09:40:37.177Z,101485.00
2023-04-15T09:43:05.473Z,101489.00
2023-04-15T09:45:33.974Z,101486.00
2023-04-15T09:48:16.291Z,101498.00
2023-04-15T09:50:44.017Z,101492.00
2023-04-15T09:53:14.117Z,101498.00
2023-04-15T09:55:45.585Z,101494.00
2023-04-15T09:58:27.945Z,101505.00
2023-04-15T10:00:57.286Z,101506.00
2023-04-15T10:03:31.147Z,101505.00
2023-04-15T10:05:59.546Z,101512.00
2023-04-15T10:08:29.121Z,101525.00
2023-04-15T10:10:56.275Z,101516.00
2023-04-15T10:13:28.757Z,101524.00
2023-04-15T10:16:12.605Z,101531.00
2023-04-15T10:18:43.427Z,101536.00
2023-04-15T10:21:10.271Z,101538.00
2023-04-15T10:23:38.535Z,101530.00
2023-04-15T10:26:06.241Z,101538.00
2023-04-15T10:28:32.972Z,101543.00
2023-04-15T10:31:00.019Z,101546.00
2023-04-15T10:33:27.776Z,101542.00
2023-04-15T10:35:56.001Z,101549.00
2023-04-15T10:38:52.922Z,101550.00
2023-04-15T10:41:23.807Z,101560.00
2023-04-15T10:44:01.405Z,101567.00
2023-04-15T10:46:47.345Z,101563.00
2023-04-15T10:49:15.690Z,101579.00
2023-04-15T10:51:45.125Z,101563.00
2023-04-15T10:54:17.175Z,101578.00
2023-04-15T10:56:45.499Z,101578.00
2023-04-15T10:59:12.299Z,101582.00
2023-04-15T11:02:00.253Z,101592.00
2023-04-15T11:04:56.274Z,101587.00
2023-04-15T11:07:36.286Z,101600.00
2023-04-15T11:10:03.739Z,101596.00
2023-04-15T11:12:37.250Z,101597.00
2023-04-15T11:15:31.959Z,101607.00
2023-04-15T11:18:00.388Z,101622.00
2023-04-15T11:20:27.321Z,101621.00
2023-04-15T11:23:13.711Z,101625.00
2023-04-15T11:25:41.774Z,101629.00
2023-04-15T11:28:08.561Z,101626.00
2023-04-15T11:30:37.791Z,101634.00
2023-04-15T11:33:06.684Z,101633.00
2023-04-15T11:35:33.644Z,101644.00
2023-04-15T11:38:08.752Z,101650.00
2023-04-15T11:40:36.312Z,101650.00
2023-04-15T11:43:10.842Z,101657.00
2023-04-15T11:45:58.758Z,101664.00
2023-04-15T11:48:36.558Z,101669.00
2023-04-15T11:51:06.025Z,101664.00
2023-04-15T11:53:46.191Z,101671.00
2023-04-15T11:56:26.543Z,101676.00
2023-04-15T11:58:57.143Z,101683.00
2023-04-15T12:01:33.845Z,101691.00
2023-04-15T12:04:01.803Z,101696.00
2023-04-15T12:06:35.090Z,101697.00
2023-04-15T12:09:07.447Z,101703.00
2023-04-15T12:11:57.523Z,101706.00
2023-04-15T12:14:29.501Z,101712.00
2023-04-15T12:17:03.192Z,101715.00
2023-04-15T12:19:36.690Z,101721.00
2023-04-15T12:22:11.557Z,101730.00
2023-04-15T12:24:39.422Z,101730.00
2023-04-15T12:27:08.490Z,101736.00
2023-04-15T12:29:37.046Z,101744.00
2023-04-15T12:32:11.561Z,101748.00
2023-04-15T12:34:49.714Z,101754.00
2023-04-15T12:37:16.621Z,101759.00
2023-04-15T12:39:46.008Z,101755.00
2023-04-15T12:42:12.985Z,101769.00
2023-04-15T12:44:40.413Z,101773.00
2023-04-15T12:47:08.766Z,101781.00
2023-04-15T12:49:35.725Z,101793.00
2023-04-15T12:52:03.041Z,101796.00
2023-04-15T12:54:30.857Z,101791.00
2023-04-15T12:56:58.364Z,101796.00
2023-04-15T12:59:25.602Z,101796.00
2023-04-15T13:01:53.433Z,101804.00
2023-04-15T13:04:21.346Z,101806.00
2023-04-15T13:06:48.310Z,101804.00
2023-04-15T13:09:15.816Z,101811.00
2023-04-15T13:11:42.618Z,101817.00
2023-04-15T13:14:11.524Z,101820.00
2023-04-15T13:16:38.500Z,101826.00
2023-04-15T13:19:05.560Z,101824.00
2023-04-15T13:21:35.749Z,101825.00
2023-04-15T13:24:03.376Z,101833.00
2023-04-15T13:26:31.387Z,101828.00
2023-04-15T13:28:57.974Z,101835.00
2023-04-15T13:31:24.630Z,101841.00
2023-04-15T13:33:51.318Z,101847.00
2023-04-15T13:36:17.923Z,101844.00
2023-04-15T13:38:44.503Z,101855.00
2023-04-15T13:41:11.316Z,101857.00
2023-04-15T13:43:37.992Z,101855.00
2023-04-15T13:46:04.820Z,101856.00
2023-04-15T13:48:31.759Z,101860.00
2023-04-15T13:50:58.436Z,101869.00
2023-04-15T13:53:28.213Z,101881.00
2023-04-15T13:56:08.116Z,101880.00
2023-04-15T13:58:34.806Z,101897.00
2023-04-15T14:01:03.196Z,101895.00
2023-04-15T14:03:31.781Z,101899.00
2023-04-15T14:05:58.811Z,101899.00
2023-04-15T14:08:25.907Z,101907.00
2023-04-15T14:10:52.577Z,101911.00
2023-04-15T14:13:19.783Z,101912.00
2023-04-15T14:15:46.933Z,101907.00
2023-04-15T14:18:13.706Z,101923.00
2023-04-15T14:20:40.653Z,101924.00
2023-04-15T14:23:07.667Z,101924.00
2023-04-15T14:25:34.474Z,101934.00
2023-04-15T14:28:02.360Z,101936.00
2023-04-15T14:30:29.290Z,101932.00
2023-04-15T14:32:56.119Z,101936.00
2023-04-15T14:35:24.680Z,101952.00
2023-04-15T14:37:51.610Z,101956.00
2023-04-15T14:40:18.251Z,101959.00
2023-04-15T14:42:44.926Z,101950.00
2023-04-15T14:45:11.765Z,101967.00
2023-04-15T14:47:38.456Z,101966.00
2023-04-15T14:50:05.657Z,101969.00
2023-04-15T14:52:38.934Z,101977.00
2023-04-15T14:55:10.514Z,101980.00
2023-04-15T14:57:41.479Z,101988.00
2023-04-15T15:00:09.991Z,102001.00
2023-04-15T15:02:39.645Z,102005.00
2023-04-15T15:05:07.562Z,102008.00
2023-04-15T15:07:34.366Z,102006.00
2023-04-15T15:10:00.921Z,102011.00
2023-04-15T15:12:27.529Z,102013.00
2023-04-15T15:14:56.090Z,102011.00
2023-04-15T15:17:22.836Z,102026.00
2023-04-15T15:19:49.553Z,102032.00
2023-04-15T15:22:16.199Z,102031.00
2023-04-15T15:24:42.967Z,102029.00
2023-04-15T15:27:10.069Z,102029.00
2023-04-15T15:29:38.157Z,102027.00
2023-04-15T15:32:04.959Z,102033.00
2023-04-15T15:34:31.582Z,102033.00
2023-04-15T15:37:00.447Z,102039.00
2023-04-15T15:39:27.861Z,102047.00
2023-04-15T15:41:54.701Z,102052.00
2023-04-15T15:44:21.407Z,102060.00
2023-04-15T15:46:48.040Z,102049.00
2023-04-15T15:49:14.776Z,102051.00
2023-04-15T15:51:41.479Z,102059.00
2023-04-15T15:54:08.169Z,102070.00
2023-04-15T15:56:35.230Z,102074.00
2023-04-15T15:59:01.936Z,102074.00
2023-04-15T16:01:28.743Z,102075.00
2023-04-15T16:03:58.277Z,102076.00
2023-04-15T16:06:25.086Z,102077.00
2023-04-15T16:08:51.670Z,102087.00
2023-04-15T16:11:18.282Z,102087.00
2023-04-15T16:13:44.893Z,102086.00
2023-04-15T16:16:11.651Z,102086.00
2023-04-15T16:18:38.338Z,102090.00
2023-04-15T16:21:05.700Z,102094.00
2023-04-15T16:23:32.342Z,102101.00
2023-04-15T16:25:59.035Z,102103.00
2023-04-15T16:28:27.224Z,102101.00
2023-04-15T16:30:54.819Z,102107.00
2023-04-15T16:33:21.536Z,102104.00
2023-04-15T16:35:48.222Z,102109.00
2023-04-15T16:38:14.908Z,102113.00
2023-04-15T16:40:41.475Z,102119.00
2023-04-15T16:43:11.165Z,102120.00
2023-04-15T16:45:38.040Z,102132.00
2023-04-15T16:48:05.021Z,102145.00
2023-04-15T16:50:31.836Z,102137.00
2023-04-15T16:52:58.426Z,102144.00
2023-04-15T16:55:25.428Z,102139.00
2023-04-15T16:58:02.319Z,102144.00
2023-04-15T17:00:31.268Z,102152.00
2023-04-15T17:02:58.520Z,102155.00
2023-04-15T17:05:27.622Z,102161.00
2023-04-15T17:07:54.447Z,102155.00
2023-04-15T17:10:21.127Z,102156.00
2023-04-15T17:12:47.770Z,102160.00
2023-04-15T17:15:14.435Z,102156.00
2023-04-15T17:17:41.141Z,102153.00
2023-04-15T17:20:08.120Z,102163.00
2023-04-15T17:22:34.933Z,102155.00
2023-04-15T17:25:01.564Z,102161.00
2023-04-15T17:27:29.013Z,102161.00
2023-04-15T17:29:56.164Z,102161.00
2023-04-15T17:32:23.889Z,102173.00
2023-04-15T17:34:51.390Z,102174.00
2023-04-15T17:37:18.702Z,102178.00
2023-04-15T17:39:45.594Z,102190.00
2023-04-15T17:42:12.925Z,102192.00
2023-04-15T17:44:39.989Z,102191.00
2023-04-15T17:47:06.960Z,102189.00
2023-04-15T17:49:34.346Z,102194.00
2023-04-15T17:52:01.330Z,102197.00
2023-04-15T17:54:28.147Z,102198.00
2023-04-15T17:56:54.943Z,102198.00
2023-04-15T17:59:21.646Z,102205.00
2023-04-15T18:01:48.487Z,102199.00
2023-04-15T18:04:15.801Z,102204.00
2023-04-15T18:06:42.613Z,102211.00
2023-04-15T18:09:09.225Z,102213.00
2023-04-15T18:11:35.921Z,102220.00
2023-04-15T18:14:04.245Z,102232.00
2023-04-15T18:16:31.611Z,102235.00
2023-04-15T18:19:00.120Z,102247.00
2023-04-15T18:21:27.144Z,102248.00
2023-04-15T18:23:53.900Z,102241.00
2023-04-15T18:26:21.884Z,102246.00
2023-04-15T18:28:48.603Z,102241.00
2023-04-15T18:31:15.744Z,102253.00
2023-04-15T18:33:42.481Z,102251.00
2023-04-15T18:36:10.358Z,102256.00
2023-04-15T18:38:37.065Z,102255.00
2023-04-15T18:41:05.500Z,102261.00
2023-04-15T18:43:32.513Z,102266.00
2023-04-15T18:46:00.169Z,102275.00
2023-04-15T18:48:27.087Z,102272.00
2023-04-15T18:50:54.303Z,102281.00
2023-04-15T18:53:21.605Z,102299.00
2023-04-15T18:55:48.429Z,102289.00
2023-04-15T18:58:15.689Z,102296.00
2023-04-15T19:00:43.889Z,102297.00
2023-04-15T19:03:11.689Z,102301.00
2023-04-15T19:05:38.691Z,102304.00
2023-04-15T19:08:05.532Z,102304.00
2023-04-15T19:10:32.215Z,102307.00
2023-04-15T19:12:58.872Z,102308.00
2023-04-15T19:15:25.500Z,102309.00
2023-04-15T19:17:52.156Z,102310.00
2023-04-15T19:20:18.863Z,102306.00
2023-04-15T19:22:46.278Z,102303.00
2023-04-15T19:25:13.033Z,102318.00
2023-04-15T19:27:39.717Z,102323.00
2023-04-15T19:30:07.805Z,102332.00
2023-04-15T19:32:36.283Z,102332.00
2023-04-15T19:35:03.237Z,102329.00
2023-04-15T19:37:30.202Z,102332.00
2023-04-15T19:39:56.885Z,102340.00
2023-04-15T19:42:23.484Z,102346.00
2023-04-15T19:44:50.080Z,102352.00
2023-04-15T19:47:16.820Z,102349.00
2023-04-15T19:49:43.652Z,102357.00
2023-04-15T19:52:10.298Z,102360.00
2023-04-15T19:54:37.173Z,102359.00
2023-04-15T19:57:03.839Z,102361.00
2023-04-15T19:59:30.485Z,102356.00
2023-04-15T20:01:57.368Z,102362.00
2023-04-15T20:04:24.131Z,102372.00
2023-04-15T20:06:50.957Z,102366.00
2023-04-15T20:09:17.607Z,102362.00
2023-04-15T20:12:46.927Z,102367.00
2023-04-15T20:14:31.020Z,102368.00
2023-04-15T20:16:57.643Z,102369.00
2023-04-15T20:19:24.273Z,102367.00
2023-04-15T20:21:52.519Z,102371.00
2023-04-15T20:24:20.493Z,102373.00
2023-04-15T20:26:47.369Z,102374.00
2023-04-15T20:29:14.149Z,102369.00
2023-04-15T20:31:40.861Z,102381.00
2023-04-15T20:34:08.840Z,102384.00
2023-04-15T20:36:37.365Z,102383.00
2023-04-15T20:39:04.287Z,102386.00
2023-04-15T20:41:31.245Z,102377.00
2023-04-15T20:43:57.931Z,102383.00
2023-04-15T20:46:26.621Z,102383.00
2023-04-15T20:48:54.173Z,102376.00
2023-04-15T20:51:23.501Z,102377.00
2023-04-15T20:53:50.250Z,102374.00
2023-04-15T20:56:16.957Z,102372.00
2023-04-15T20:58:43.620Z,102373.00
2023-04-15T21:01:10.445Z,102373.00
2023-04-15T21:03:37.296Z,102375.00
2023-04-15T21:06:04.048Z,102384.00
2023-04-15T21:08:31.543Z,102382.00
2023-04-15T21:10:58.533Z,102387.00
2023-04-15T21:13:25.157Z,102386.00
2023-04-15T21:15:54.300Z,102391.00
2023-04-15T21:18:21.852Z,102401.00
2023-04-15T21:20:58.497Z,102393.00
2023-04-15T21:23:25.834Z,102393.00
2023-04-15T21:25:52.467Z,102393.00
2023-04-15T21:28:19.008Z,102397.00
2023-04-15T21:30:46.225Z,102407.00
2023-04-15T21:33:12.870Z,102413.00
2023-04-15T21:35:39.752Z,102411.00
2023-04-15T21:38:06.599Z,102411.00
2023-04-15T21:40:33.335Z,102419.00
2023-04-15T21:42:59.998Z,102422.00
2023-04-15T21:45:27.057Z,102417.00
2023-04-15T21:48:01.243Z,102420.00
2023-04-15T21:50:36.492Z,102422.00
2023-04-15T21:53:03.923Z,102424.00
2023-04-15T21:55:30.581Z,102421.00
2023-04-15T21:57:57.145Z,102424.00
2023-04-15T22:00:24.317Z,102427.00
2023-04-15T22:02:51.679Z,102436.00
2023-04-15T22:05:18.503Z,102430.00
2023-04-15T22:07:45.184Z,102437.00
2023-04-15T22:10:11.876Z,102439.00
2023-04-15T22:12:41.892Z,102440.00
2023-04-15T22:15:09.006Z,102443.00
2023-04-15T22:17:35.786Z,102439.00
2023-04-15T22:20:02.849Z,102445.00
2023-04-15T22:22:43.375Z,102448.00
2023-04-15T22:25:11.427Z,102446.00
2023-04-15T22:27:38.207Z,102443.00
2023-04-15T22:30:05.659Z,102447.00
2023-04-15T22:32:32.323Z,102449.00
2023-04-15T22:34:58.999Z,102454.00
2023-04-15T22:37:25.643Z,102454.00
2023-04-15T22:39:52.266Z,102458.00
2023-04-15T22:42:18.888Z,102461.00
2023-04-15T22:44:45.690Z,102461.00
2023-04-15T22:47:12.341Z,102456.00
2023-04-15T22:49:39.518Z,102465.00
2023-04-15T22:52:07.034Z,102463.00
2023-04-15T22:54:34.562Z,102469.00
2023-04-15T22:57:02.274Z,102468.00
2023-04-15T22:59:28.956Z,102455.00
2023-04-15T23:01:56.229Z,102464.00
2023-04-15T23:04:27.546Z,102467.00
2023-04-15T23:06:54.615Z,102470.00
2023-04-15T23:09:21.518Z,102478.00
2023-04-15T23:11:48.243Z,102472.00
2023-04-15T23:14:14.853Z,102482.00
2023-04-15T23:16:41.692Z,102482.00
2023-04-15T23:19:08.885Z,102478.00
2023-04-15T23:21:35.880Z,102478.00
2023-04-15T23:24:02.559Z,102483.00
2023-04-15T23:26:29.402Z,102486.00
2023-04-15T23:28:56.157Z,102481.00
2023-04-15T23:31:22.913Z,102488.00
2023-04-15T23:33:49.560Z,102486.00
2023-04-15T23:36:16.228Z,102484.00
2023-04-15T23:38:42.841Z,102489.00
2023-04-15T23:41:11.915Z,102495.00
2023-04-15T23:43:38.676Z,102494.00
2023-04-15T23:46:05.337Z,102490.00
2023-04-15T23:48:31.998Z,102492.00
2023-04-15T23:50:58.884Z,102496.00
2023-04-15T23:53:25.548Z,102496.00
2023-04-15T23:55:52.158Z,102491.00
2023-04-15T23:58:18.826Z,102491.00
